Time;durP1;ratioP1;P1;durP2;ratioP2;P2;SDS_P1;SDS_P2;PMS_P1;PMS_P2;Temp;Humidity;BMP_temperature;BMP_pressure;BME280_temperature;BME280_humidity;BME280_pressure;Samples;Min_cycle;Max_cycle;Signal;HPM_P1;HPM_P2
2021/03/25 00:01:45;;;;;;;144.90;54.08;;;3.50;92.90;;;;;;4983820;28;20064;-66
2021/03/25 00:04:11;;;;;;;136.15;52.60;;;3.50;92.70;;;;;;4999427;28;20037;-66
2021/03/25 00:06:48;;;;;;;135.30;53.40;;;3.50;92.60;;;;;;5005045;28;20026;-66
2021/03/25 00:09:21;;;;;;;138.77;51.80;;;3.40;92.80;;;;;;4996402;28;20045;-66
2021/03/25 00:11:47;;;;;;;160.50;54.85;;;3.30;92.70;;;;;;4999851;28;20061;-67
2021/03/25 00:14:13;;;;;;;140.38;52.88;;;3.30;93.10;;;;;;5002578;28;20479;-66
2021/03/25 00:16:39;;;;;;;154.80;54.75;;;3.20;93.40;;;;;;4999930;28;20037;-67
2021/03/25 00:19:06;;;;;;;149.35;53.92;;;3.20;93.70;;;;;;5017508;28;20379;-66
2021/03/25 00:21:33;;;;;;;144.27;53.15;;;3.10;93.70;;;;;;4998637;28;20036;-66
2021/03/25 00:23:59;;;;;;;140.57;52.80;;;3.10;93.70;;;;;;5002843;28;20375;-66
2021/03/25 00:26:24;;;;;;;178.98;55.78;;;3.10;93.70;;;;;;4982052;28;20093;-66
2021/03/25 00:28:50;;;;;;;172.32;55.83;;;3.10;93.70;;;;;;5002390;28;20026;-66
2021/03/25 00:31:16;;;;;;;151.75;54.53;;;3.10;93.90;;;;;;4985661;28;20497;-67
2021/03/25 00:33:53;;;;;;;167.88;55.90;;;3.10;93.90;;;;;;5000550;28;20080;-66
2021/03/25 00:36:21;;;;;;;164.30;53.35;;;3.00;93.80;;;;;;5000579;28;20033;-66
2021/03/25 00:38:47;;;;;;;182.95;56.03;;;2.90;93.80;;;;;;4984114;28;20026;-66
2021/03/25 00:41:12;;;;;;;159.98;54.30;;;2.90;93.80;;;;;;5004263;28;20026;-66
2021/03/25 00:43:38;;;;;;;165.32;54.40;;;2.90;93.70;;;;;;5004208;28;20397;-65
2021/03/25 00:46:04;;;;;;;151.55;54.45;;;2.90;93.80;;;;;;4987432;28;20025;-66
2021/03/25 00:48:29;;;;;;;189.27;57.72;;;2.80;93.60;;;;;;5002456;28;20036;-66
2021/03/25 00:51:01;;;;;;;228.82;61.25;;;2.80;93.70;;;;;;4982710;28;20038;-66
2021/03/25 00:53:30;;;;;;;216.20;62.05;;;2.90;94.10;;;;;;4986793;28;20537;-66
2021/03/25 00:55:56;;;;;;;244.88;64.75;;;2.80;93.80;;;;;;5001793;28;20034;-66
2021/03/25 00:58:23;;;;;;;244.05;67.15;;;2.90;94.20;;;;;;4998705;28;20060;-65
2021/03/25 01:00:49;;;;;;;224.40;64.95;;;2.90;94.20;;;;;;4982736;28;20021;-66
2021/03/25 01:03:17;;;;;;;211.02;62.85;;;2.80;93.90;;;;;;4983424;28;20057;-66
2021/03/25 01:05:43;;;;;;;163.45;57.95;;;2.80;94.00;;;;;;5004439;28;20029;-66
2021/03/25 01:08:10;;;;;;;200.90;62.28;;;2.70;93.70;;;;;;4981941;28;20558;-65
2021/03/25 01:10:43;;;;;;;200.50;61.40;;;2.70;93.90;;;;;;4984874;28;20470;-66
2021/03/25 01:13:21;;;;;;;209.02;62.08;;;2.70;93.80;;;;;;4997135;28;20033;-65
2021/03/25 01:15:46;;;;;;;229.98;63.50;;;2.70;93.90;;;;;;5005591;28;20101;-66
2021/03/25 01:18:12;;;;;;;226.10;66.82;;;2.70;93.90;;;;;;4990083;28;20105;-65
2021/03/25 01:20:40;;;;;;;249.30;67.85;;;2.70;94.10;;;;;;5018507;28;20026;-66
2021/03/25 01:23:07;;;;;;;232.65;64.97;;;2.70;94.20;;;;;;5002864;28;20056;-65
2021/03/25 01:25:35;;;;;;;229.40;64.43;;;2.70;94.30;;;;;;4990848;28;20036;-67
2021/03/25 01:28:02;;;;;;;201.13;64.60;;;2.60;94.20;;;;;;4989168;28;20570;-66
2021/03/25 01:30:30;;;;;;;170.73;57.67;;;2.50;94.10;;;;;;5005944;28;20524;-67
2021/03/25 01:32:57;;;;;;;195.48;59.88;;;2.50;93.90;;;;;;4991435;28;20064;-66
2021/03/25 01:35:23;;;;;;;198.40;60.88;;;2.40;93.80;;;;;;4980185;28;20026;-66
2021/03/25 01:37:50;;;;;;;248.05;63.50;;;2.40;93.70;;;;;;4986776;28;20104;-66
2021/03/25 01:40:27;;;;;;;269.92;66.88;;;2.40;94.10;;;;;;5007969;28;20289;-66
2021/03/25 01:43:09;;;;;;;304.05;71.18;;;2.40;94.50;;;;;;5006980;28;20042;-67
2021/03/25 01:45:41;;;;;;;324.23;74.50;;;2.40;94.90;;;;;;5004001;28;20041;-66
2021/03/25 01:48:07;;;;;;;302.10;71.22;;;2.40;95.00;;;;;;5021662;28;20030;-66
2021/03/25 01:50:33;;;;;;;314.48;74.72;;;2.30;95.00;;;;;;4994087;28;20041;-67
2021/03/25 01:53:20;;;;;;;305.45;72.00;;;2.30;95.10;;;;;;4983647;28;20032;-66
2021/03/25 01:55:55;;;;;;;351.92;78.00;;;2.30;95.10;;;;;;5005140;28;20034;-66
2021/03/25 01:58:48;;;;;;;319.85;74.07;;;2.30;95.20;;;;;;4998210;28;20042;-67
2021/03/25 02:01:31;;;;;;;330.77;74.55;;;2.30;95.20;;;;;;5007055;28;20375;-66
2021/03/25 02:04:21;;;;;;;325.92;73.45;;;2.30;95.30;;;;;;5023439;28;20398;-67
2021/03/25 02:07:05;;;;;;;340.88;76.10;;;2.30;95.30;;;;;;5005481;28;20509;-66
2021/03/25 02:09:47;;;;;;;310.88;71.70;;;2.20;95.20;;;;;;5000440;28;20421;-66
2021/03/25 02:12:31;;;;;;;318.10;75.10;;;2.20;95.20;;;;;;5002020;28;20056;-66
2021/03/25 02:15:24;;;;;;;340.42;74.85;;;2.30;95.20;;;;;;5003467;28;20053;-65
2021/03/25 02:18:10;;;;;;;280.90;69.40;;;2.30;95.30;;;;;;5007808;28;20375;-66
2021/03/25 02:20:58;;;;;;;324.25;77.00;;;2.40;95.30;;;;;;4982596;28;20023;-66
2021/03/25 02:23:23;;;;;;;309.65;76.55;;;2.50;95.20;;;;;;5002927;28;20038;-66
2021/03/25 02:25:57;;;;;;;320.02;76.75;;;2.50;95.20;;;;;;5001333;28;20055;-67
2021/03/25 02:28:49;;;;;;;268.55;72.65;;;2.60;95.20;;;;;;5006190;28;20022;-67
2021/03/25 02:31:19;;;;;;;251.95;68.72;;;2.60;95.00;;;;;;4999986;28;20509;-66
2021/03/25 02:33:48;;;;;;;259.95;69.40;;;2.70;95.00;;;;;;4999690;28;20620;-66
2021/03/25 02:36:18;;;;;;;226.73;65.70;;;2.70;94.80;;;;;;4987333;28;20113;-68
2021/03/25 02:38:53;;;;;;;271.00;70.70;;;2.70;94.80;;;;;;4972775;28;20026;-66
2021/03/25 02:41:27;;;;;;;334.98;77.35;;;2.80;94.80;;;;;;4989182;28;20053;-66
2021/03/25 02:44:10;;;;;;;284.35;73.65;;;2.80;94.90;;;;;;5001743;28;20037;-67
2021/03/25 02:46:50;;;;;;;288.83;75.05;;;2.90;94.90;;;;;;4985088;28;20030;-67
2021/03/25 02:49:21;;;;;;;331.17;84.38;;;3.00;95.00;;;;;;4967038;28;20422;-67
2021/03/25 02:51:52;;;;;;;341.98;83.03;;;3.10;95.20;;;;;;5021274;28;20033;-66
2021/03/25 02:54:19;;;;;;;323.77;82.00;;;3.20;95.30;;;;;;5006073;28;20482;-67
2021/03/25 02:56:58;;;;;;;333.65;84.43;;;3.20;95.30;;;;;;5005727;28;20033;-66
2021/03/25 02:59:31;;;;;;;296.77;81.35;;;3.20;95.30;;;;;;5000846;28;20022;-67
2021/03/25 03:02:01;;;;;;;288.98;77.25;;;3.20;95.30;;;;;;5001707;28;20029;-66
2021/03/25 03:04:34;;;;;;;300.88;79.57;;;3.20;95.20;;;;;;4989758;28;20049;-66
2021/03/25 03:07:08;;;;;;;297.70;76.40;;;3.10;95.20;;;;;;5004413;28;20059;-67
2021/03/25 03:09:42;;;;;;;270.13;73.43;;;3.10;95.30;;;;;;4995252;28;20050;-67
2021/03/25 03:12:32;;;;;;;276.42;75.65;;;3.10;95.20;;;;;;5015330;28;20026;-67
2021/03/25 03:15:13;;;;;;;296.58;75.70;;;3.00;95.20;;;;;;4986454;28;20032;-67
2021/03/25 03:17:47;;;;;;;334.42;77.75;;;3.00;95.30;;;;;;4994849;28;20185;-67
2021/03/25 03:20:21;;;;;;;375.60;86.40;;;3.10;95.60;;;;;;5005254;28;20034;-67
2021/03/25 03:22:48;;;;;;;311.10;78.32;;;3.10;95.70;;;;;;4988765;28;20506;-66
2021/03/25 03:25:17;;;;;;;317.08;82.13;;;3.10;95.60;;;;;;5001547;28;20045;-67
2021/03/25 03:27:45;;;;;;;334.35;81.40;;;3.00;95.50;;;;;;5002695;28;20026;-68
2021/03/25 03:30:25;;;;;;;332.85;79.05;;;3.00;95.60;;;;;;5006579;28;20419;-67
2021/03/25 03:33:14;;;;;;;309.40;78.93;;;2.90;95.50;;;;;;4999208;28;20038;-67
2021/03/25 03:35:53;;;;;;;288.38;75.13;;;2.90;95.60;;;;;;5004961;28;20375;-67
2021/03/25 03:38:41;;;;;;;308.63;75.88;;;2.80;95.50;;;;;;5001968;28;20053;-67
2021/03/25 03:41:11;;;;;;;268.42;72.40;;;2.70;95.50;;;;;;5008072;28;20022;-68
2021/03/25 03:43:38;;;;;;;254.95;69.07;;;2.60;95.40;;;;;;4984552;28;20078;-66
2021/03/25 03:46:05;;;;;;;274.00;69.75;;;2.50;95.50;;;;;;5007011;28;20107;-67
2021/03/25 03:48:43;;;;;;;230.30;66.15;;;2.50;95.50;;;;;;5006115;28;20570;-67
2021/03/25 03:51:20;;;;;;;238.13;68.30;;;2.40;95.40;;;;;;5005720;28;20054;-67
2021/03/25 03:53:46;;;;;;;282.85;68.55;;;2.40;95.50;;;;;;5004501;28;20037;-68
2021/03/25 03:56:15;;;;;;;300.88;71.47;;;2.40;95.60;;;;;;4988317;28;20034;-67
2021/03/25 03:58:53;;;;;;;290.77;69.90;;;2.40;95.70;;;;;;4980286;28;20109;-67
2021/03/25 04:01:36;;;;;;;291.08;70.82;;;2.30;95.70;;;;;;5001161;28;20025;-67
2021/03/25 04:04:05;;;;;;;310.00;74.50;;;2.30;95.70;;;;;;5002842;28;20029;-68
2021/03/25 04:06:37;;;;;;;314.00;73.10;;;2.30;95.80;;;;;;4989703;28;20038;-67
2021/03/25 04:09:09;;;;;;;276.67;69.72;;;2.30;95.80;;;;;;4998854;28;20034;-67
2021/03/25 04:11:52;;;;;;;339.58;74.05;;;2.20;95.80;;;;;;4989289;28;20049;-65
2021/03/25 04:14:45;;;;;;;255.32;68.20;;;2.30;96.00;;;;;;4988275;28;20022;-66
2021/03/25 04:17:16;;;;;;;278.83;67.57;;;2.10;95.90;;;;;;5005351;28;20029;-67
2021/03/25 04:19:43;;;;;;;;;;;2.10;95.90;;;;;;4986968;28;20029;-68
2021/03/25 04:22:28;;;;;;;328.38;71.57;;;2.10;96.00;;;;;;4988665;28;19960;-67
2021/03/25 04:25:01;;;;;;;298.25;72.88;;;2.20;96.10;;;;;;4985622;28;20089;-67
2021/03/25 04:27:32;;;;;;;315.63;73.93;;;2.10;96.10;;;;;;5004326;28;20037;-67
2021/03/25 04:30:17;;;;;;;331.80;78.43;;;2.10;96.10;;;;;;5000069;28;20032;-67
2021/03/25 04:32:44;;;;;;;360.25;82.60;;;2.20;96.30;;;;;;4983289;28;20462;-67
2021/03/25 04:35:11;;;;;;;383.40;83.53;;;2.20;96.30;;;;;;4988225;28;20370;-66
2021/03/25 04:37:37;;;;;;;377.73;84.82;;;2.30;96.40;;;;;;5002705;28;20038;-66
2021/03/25 04:40:09;;;;;;;370.30;85.93;;;2.30;96.40;;;;;;5001331;28;20026;-66
2021/03/25 04:42:40;;;;;;;389.38;84.70;;;2.30;96.40;;;;;;4995411;28;20663;-66
2021/03/25 04:45:16;;;;;;;398.88;84.15;;;2.30;96.50;;;;;;4983695;28;20109;-67
2021/03/25 04:47:47;;;;;;;363.42;82.70;;;2.30;96.40;;;;;;5007940;28;20331;-69
2021/03/25 04:50:16;;;;;;;361.13;82.07;;;2.30;96.40;;;;;;4990597;28;20172;-66
2021/03/25 04:52:42;;;;;;;350.38;81.38;;;2.30;96.30;;;;;;5010547;28;20128;-67
2021/03/25 04:55:14;;;;;;;361.73;78.68;;;2.20;96.40;;;;;;4989334;28;20076;-68
2021/03/25 04:57:44;;;;;;;367.58;81.18;;;2.30;96.40;;;;;;5007328;28;20037;-66
2021/03/25 05:00:16;;;;;;;379.98;79.88;;;2.30;96.50;;;;;;5005160;28;20034;-66
2021/03/25 05:02:42;;;;;;;352.83;79.13;;;2.30;96.50;;;;;;5011221;28;20042;-66
2021/03/25 05:05:15;;;;;;;378.58;80.75;;;2.30;96.50;;;;;;5010774;28;20026;-66
2021/03/25 05:07:42;;;;;;;371.23;83.80;;;2.60;96.70;;;;;;5011898;28;20033;-66
2021/03/25 05:10:42;;;;;;;387.83;89.72;;;2.50;96.60;;;;;;5008719;28;20064;-67
2021/03/25 05:13:46;;;;;;;410.02;88.15;;;2.60;96.60;;;;;;5002061;28;20037;-66
2021/03/25 05:16:39;;;;;;;362.27;85.50;;;2.70;96.60;;;;;;4987879;28;20041;-66
2021/03/25 05:19:30;;;;;;;380.73;89.70;;;2.80;96.50;;;;;;5001976;28;20022;-67
2021/03/25 05:22:13;;;;;;;363.23;89.87;;;2.90;96.60;;;;;;4993011;28;20061;-68
2021/03/25 05:24:56;;;;;;;362.30;86.82;;;3.00;96.50;;;;;;5002584;28;20030;-67
2021/03/25 05:27:28;;;;;;;332.77;84.50;;;3.00;96.40;;;;;;4989885;28;20049;-67
2021/03/25 05:29:56;;;;;;;316.60;83.13;;;3.10;96.40;;;;;;5005162;28;20037;-67
2021/03/25 05:32:27;;;;;;;288.23;78.43;;;3.10;96.20;;;;;;4982109;28;20520;-67
2021/03/25 05:34:55;;;;;;;296.30;78.43;;;3.20;96.20;;;;;;5012101;28;20495;-66
2021/03/25 05:37:21;;;;;;;271.75;74.53;;;3.20;96.00;;;;;;4993660;28;20038;-66
2021/03/25 05:39:47;;;;;;;283.13;79.03;;;3.30;96.00;;;;;;5007904;28;20106;-67
2021/03/25 05:42:18;;;;;;;274.05;75.22;;;3.30;95.90;;;;;;5009492;28;20026;-67
2021/03/25 05:45:22;;;;;;;263.17;73.20;;;3.50;95.90;;;;;;5008471;28;20101;-67
2021/03/25 05:48:17;;;;;;;255.55;71.90;;;3.60;95.90;;;;;;5006908;28;20126;-67
2021/03/25 05:51:04;;;;;;;233.13;70.47;;;3.70;95.80;;;;;;5003903;28;20585;-66
2021/03/25 05:53:38;;;;;;;208.88;66.20;;;3.80;95.60;;;;;;5006834;28;20726;-67
2021/03/25 05:56:28;;;;;;;199.18;65.57;;;3.90;95.60;;;;;;5009052;28;20029;-67
2021/03/25 05:59:00;;;;;;;189.60;62.78;;;4.00;95.40;;;;;;5006581;28;20083;-67
2021/03/25 06:01:52;;;;;;;147.65;59.17;;;4.10;95.30;;;;;;4999190;28;20046;-66
2021/03/25 06:04:23;;;;;;;153.70;57.08;;;4.10;95.10;;;;;;5002723;28;20116;-66
2021/03/25 06:07:17;;;;;;;135.88;54.30;;;4.20;94.90;;;;;;5012381;28;20041;-66
2021/03/25 06:10:06;;;;;;;124.38;52.17;;;4.30;94.70;;;;;;5021666;28;20036;-67
2021/03/25 06:13:10;;;;;;;118.80;51.03;;;4.40;94.50;;;;;;5009520;28;20486;-66
2021/03/25 06:16:25;;;;;;;108.68;49.78;;;4.40;94.40;;;;;;5022855;28;20025;-67
2021/03/25 06:19:03;;;;;;;118.47;50.38;;;4.50;94.10;;;;;;4979484;28;20513;-67
2021/03/25 06:21:28;;;;;;;104.93;48.10;;;4.60;94.10;;;;;;5023081;28;20030;-66
2021/03/25 06:24:12;;;;;;;95.28;47.28;;;4.60;93.90;;;;;;5020182;28;20083;-68
2021/03/25 06:26:50;;;;;;;89.20;44.17;;;4.70;94.00;;;;;;5010500;28;20025;-67
2021/03/25 06:29:29;;;;;;;88.45;43.53;;;4.80;94.00;;;;;;5026543;28;20045;-65
2021/03/25 06:32:16;;;;;;;91.65;45.08;;;4.90;93.70;;;;;;4994951;28;20110;-66
2021/03/25 06:34:55;;;;;;;90.53;45.30;;;5.00;93.50;;;;;;5027559;28;20026;-66
2021/03/25 06:37:23;;;;;;;84.13;44.40;;;5.10;93.30;;;;;;5022361;28;20038;-66
2021/03/25 06:40:04;;;;;;;86.25;44.13;;;5.20;93.30;;;;;;5019675;28;20029;-67
2021/03/25 06:42:54;;;;;;;83.43;41.78;;;5.40;92.90;;;;;;5026355;28;20029;-65
2021/03/25 06:45:28;;;;;;;73.60;40.23;;;5.40;92.50;;;;;;5022192;28;20033;-67
2021/03/25 06:48:20;;;;;;;78.95;42.55;;;5.50;92.10;;;;;;5008845;28;20029;-66
2021/03/25 06:50:51;;;;;;;74.68;41.15;;;5.60;91.70;;;;;;5021903;28;20036;-65
2021/03/25 06:53:23;;;;;;;76.68;40.95;;;5.60;91.40;;;;;;5018185;28;20080;-67
2021/03/25 06:56:14;;;;;;;77.10;40.15;;;5.60;91.20;;;;;;5024550;28;20072;-66
2021/03/25 06:58:47;;;;;;;70.95;38.78;;;5.60;91.00;;;;;;5005755;28;20067;-67
2021/03/25 07:01:36;;;;;;;74.03;41.83;;;5.60;91.00;;;;;;5021495;28;20030;-67
2021/03/25 07:04:13;;;;;;;76.85;39.00;;;5.70;90.70;;;;;;5004650;28;20498;-69
2021/03/25 07:06:40;;;;;;;85.25;42.45;;;5.80;90.50;;;;;;5019381;28;20486;-66
2021/03/25 07:09:05;;;;;;;74.45;40.13;;;6.10;91.00;;;;;;5007112;28;20025;-67
2021/03/25 07:11:32;;;;;;;74.65;41.42;;;6.20;89.70;;;;;;5039118;28;20047;-67
2021/03/25 07:14:05;;;;;;;72.88;40.42;;;6.40;89.50;;;;;;5017687;28;20037;-69
2021/03/25 07:16:35;;;;;;;67.75;37.40;;;6.60;89.10;;;;;;5007257;28;20032;-67
2021/03/25 07:19:12;;;;;;;65.47;36.80;;;6.50;88.00;;;;;;5021191;28;20034;-67
2021/03/25 07:21:43;;;;;;;65.70;37.58;;;6.50;88.00;;;;;;5002164;28;20037;-67
2021/03/25 07:24:32;;;;;;;66.85;37.75;;;6.40;88.50;;;;;;5022558;28;20041;-67
2021/03/25 07:27:31;;;;;;;66.80;35.67;;;6.40;88.20;;;;;;5009976;28;20025;-67
2021/03/25 07:30:06;;;;;;;66.68;36.97;;;6.40;88.70;;;;;;5006393;28;20060;-69
2021/03/25 07:32:53;;;;;;;80.53;37.47;;;6.40;88.50;;;;;;5007203;28;20144;-66
2021/03/25 07:35:21;;;;;;;63.67;37.50;;;6.50;88.80;;;;;;5025444;28;20498;-66
2021/03/25 07:37:47;;;;;;;70.97;37.78;;;6.50;88.60;;;;;;5025365;28;20033;-69
2021/03/25 07:40:22;;;;;;;65.13;37.72;;;6.50;88.00;;;;;;5007382;28;20025;-67
2021/03/25 07:42:48;;;;;;;68.43;38.15;;;6.60;88.50;;;;;;5022141;28;20037;-67
2021/03/25 07:45:27;;;;;;;63.38;36.20;;;6.80;87.90;;;;;;5016587;28;20395;-66
2021/03/25 07:47:55;;;;;;;67.60;38.53;;;6.90;87.60;;;;;;5025395;28;20398;-67
2021/03/25 07:50:28;;;;;;;65.70;36.15;;;7.00;87.50;;;;;;5005380;28;20030;-68
2021/03/25 07:52:55;;;;;;;59.30;33.83;;;7.10;87.00;;;;;;5023204;28;20037;-67
2021/03/25 07:55:27;;;;;;;67.68;37.80;;;7.10;86.20;;;;;;5022201;28;20113;-69
2021/03/25 07:57:54;;;;;;;59.45;33.38;;;7.50;87.20;;;;;;5024634;28;20175;-67
2021/03/25 08:00:26;;;;;;;60.17;34.00;;;7.60;85.40;;;;;;5001543;28;20032;-67
2021/03/25 08:03:18;;;;;;;62.92;33.33;;;7.50;85.40;;;;;;5026460;28;20115;-67
2021/03/25 08:05:44;;;;;;;;;;;7.80;85.50;;;;;;5020030;28;20228;-67
2021/03/25 08:08:38;;;;;;;53.33;31.73;;;8.30;85.20;;;;;;5020001;28;20362;-67
2021/03/25 08:11:09;;;;;;;56.58;31.73;;;8.30;84.30;;;;;;4997489;28;20188;-67
2021/03/25 08:13:36;;;;;;;54.55;30.92;;;8.40;83.40;;;;;;5018813;28;20053;-68
2021/03/25 08:16:01;;;;;;;49.00;28.25;;;8.70;83.10;;;;;;5003758;28;20103;-67
2021/03/25 08:18:55;;;;;;;50.75;29.42;;;8.70;82.00;;;;;;5020637;28;21570;-67
2021/03/25 08:21:36;;;;;;;48.58;29.35;;;9.00;83.20;;;;;;5021579;28;20452;-68
2021/03/25 08:24:20;;;;;;;45.90;26.95;;;9.40;82.10;;;;;;5018572;28;20124;-68
2021/03/25 08:27:17;;;;;;;47.88;27.40;;;9.30;80.60;;;;;;5003697;28;20149;-67
2021/03/25 08:29:59;;;;;;;47.97;26.45;;;9.50;82.30;;;;;;5019661;28;20029;-68
2021/03/25 08:33:09;;;;;;;41.70;24.52;;;9.40;80.20;;;;;;5015870;28;20040;-68
2021/03/25 08:35:46;;;;;;;48.22;27.92;;;9.50;80.10;;;;;;4989205;28;20128;-67
2021/03/25 08:38:26;;;;;;;45.90;25.38;;;9.50;79.60;;;;;;5015919;28;20032;-67
2021/03/25 08:40:55;;;;;;;44.55;27.23;;;9.50;79.70;;;;;;5024047;28;20022;-69
2021/03/25 08:43:29;;;;;;;43.03;25.55;;;9.40;80.40;;;;;;5021745;28;20401;-68
2021/03/25 08:46:24;;;;;;;45.65;25.80;;;9.60;79.90;;;;;;5023981;28;20064;-68
2021/03/25 08:49:05;;;;;;;46.47;27.45;;;9.70;78.50;;;;;;5013366;28;20069;-69
2021/03/25 08:51:37;;;;;;;46.92;26.83;;;9.90;77.50;;;;;;5025383;28;20024;-67
2021/03/25 08:54:24;;;;;;;45.10;26.63;;;9.90;77.60;;;;;;5017773;28;20049;-68
2021/03/25 08:56:56;;;;;;;41.83;23.80;;;9.70;78.20;;;;;;5021773;28;20025;-69
2021/03/25 08:59:41;;;;;;;45.65;23.55;;;9.80;77.80;;;;;;5006560;28;20140;-68
2021/03/25 09:02:19;;;;;;;39.65;23.50;;;10.20;77.70;;;;;;5022633;28;20312;-67
2021/03/25 09:04:56;;;;;;;43.40;24.52;;;10.10;76.20;;;;;;5023623;28;20037;-67
2021/03/25 09:07:23;;;;;;;39.45;22.95;;;10.10;76.40;;;;;;5017859;28;20042;-69
2021/03/25 09:10:10;;;;;;;35.35;23.27;;;10.30;76.10;;;;;;5019808;28;20164;-67
2021/03/25 09:12:36;;;;;;;35.15;21.95;;;10.70;75.50;;;;;;5016783;28;20045;-68
2021/03/25 09:15:05;;;;;;;40.00;22.73;;;10.70;74.50;;;;;;5014169;28;23592;-67
2021/03/25 09:17:46;;;;;;;38.85;22.67;;;10.80;74.20;;;;;;5005984;28;20034;-67
2021/03/25 09:20:19;;;;;;;39.70;23.30;;;11.20;74.90;;;;;;5025436;28;20033;-68
2021/03/25 09:22:52;;;;;;;39.28;21.73;;;11.20;73.40;;;;;;5021929;28;20037;-67
2021/03/25 09:25:27;;;;;;;30.60;20.42;;;11.40;74.50;;;;;;4993372;28;20513;-67
2021/03/25 09:27:55;;;;;;;33.60;19.30;;;11.60;73.20;;;;;;5020287;28;20030;-68
2021/03/25 09:30:42;;;;;;;34.22;19.80;;;11.70;71.20;;;;;;5017246;28;20398;-68
2021/03/25 09:33:43;;;;;;;34.25;20.67;;;11.10;71.80;;;;;;5022016;28;20075;-67
2021/03/25 09:36:18;;;;;;;34.45;19.65;;;11.30;72.90;;;;;;5022511;28;20433;-68
2021/03/25 09:38:59;;;;;;;30.85;18.95;;;11.50;72.30;;;;;;5007887;28;20059;-70
2021/03/25 09:41:25;;;;;;;28.80;16.42;;;11.80;71.00;;;;;;5022943;28;20026;-67
2021/03/25 09:43:54;;;;;;;27.60;17.17;;;12.00;70.70;;;;;;5026352;28;20391;-67
2021/03/25 09:46:41;;;;;;;30.77;18.77;;;12.30;71.40;;;;;;5024095;28;20033;-66
2021/03/25 09:49:36;;;;;;;31.30;16.90;;;12.30;69.10;;;;;;5021303;28;20517;-68
2021/03/25 09:52:08;;;;;;;25.63;14.98;;;12.10;69.30;;;;;;5024443;28;20057;-68
2021/03/25 09:54:53;;;;;;;26.30;16.33;;;12.50;68.60;;;;;;5007445;28;20417;-66
2021/03/25 09:57:34;;;;;;;27.00;15.20;;;12.50;67.40;;;;;;5021786;28;20087;-69
2021/03/25 10:00:24;;;;;;;24.35;15.23;;;12.50;68.40;;;;;;5027312;28;20029;-67
2021/03/25 10:03:18;;;;;;;27.63;16.13;;;12.40;69.00;;;;;;5023622;28;20502;-67
2021/03/25 10:05:44;;;;;;;24.02;14.82;;;12.60;69.30;;;;;;5016804;28;20049;-67
2021/03/25 10:08:10;;;;;;;29.05;16.50;;;12.60;67.80;;;;;;5021544;28;20209;-67
2021/03/25 10:10:43;;;;;;;26.42;15.32;;;12.60;68.30;;;;;;5026512;28;20041;-68
2021/03/25 10:13:12;;;;;;;25.58;15.55;;;12.50;68.50;;;;;;5025491;28;21872;-68
2021/03/25 10:15:50;;;;;;;25.80;13.70;;;12.90;67.40;;;;;;5009830;28;20045;-71
2021/03/25 10:18:15;;;;;;;19.67;13.25;;;12.70;66.70;;;;;;5021770;28;20022;-67
2021/03/25 10:20:44;;;;;;;19.48;12.82;;;13.00;66.30;;;;;;5027826;28;20425;-68
2021/03/25 10:23:47;;;;;;;22.38;12.50;;;13.10;68.10;;;;;;4996831;28;20033;-67
2021/03/25 10:26:16;;;;;;;24.08;12.75;;;13.00;64.80;;;;;;5014780;28;20087;-66
2021/03/25 10:28:49;;;;;;;26.75;12.07;;;13.30;65.40;;;;;;5006766;28;20037;-68
2021/03/25 10:31:40;;;;;;;18.42;11.52;;;13.70;64.50;;;;;;5018876;28;20039;-68
2021/03/25 10:34:28;;;;;;;14.25;9.00;;;14.10;61.90;;;;;;4998779;28;20029;-70
2021/03/25 10:37:01;;;;;;;15.57;9.95;;;14.00;61.20;;;;;;4996859;28;20037;-67
2021/03/25 10:39:43;;;;;;;20.95;9.82;;;13.60;60.90;;;;;;5025987;28;20532;-68
2021/03/25 10:42:36;;;;;;;14.15;7.90;;;13.80;61.50;;;;;;5014023;28;20620;-67
2021/03/25 10:45:17;;;;;;;14.57;7.93;;;13.30;61.10;;;;;;5021465;28;20034;-66
2021/03/25 10:47:59;;;;;;;15.03;8.47;;;13.20;61.40;;;;;;5028099;28;20036;-67
2021/03/25 10:50:35;;;;;;;14.70;6.97;;;14.00;59.70;;;;;;5027806;28;20040;-66
2021/03/25 10:53:03;;;;;;;12.93;7.07;;;14.00;60.40;;;;;;5015034;28;20025;-66
2021/03/25 10:55:37;;;;;;;12.55;7.65;;;14.00;58.80;;;;;;5006738;28;20028;-67
2021/03/25 10:58:04;;;;;;;13.50;6.97;;;13.80;59.00;;;;;;5008888;28;20156;-67
2021/03/25 11:00:37;;;;;;;13.18;6.00;;;14.10;60.50;;;;;;5025268;28;20053;-67
2021/03/25 11:03:18;;;;;;;9.77;6.10;;;14.30;57.60;;;;;;5020554;28;20248;-68
2021/03/25 11:05:50;;;;;;;;;;;14.40;56.60;;;;;;5022562;28;20079;-66
2021/03/25 11:08:30;;;;;;;14.30;6.85;;;14.20;57.20;;;;;;5026844;28;20020;-67
2021/03/25 11:10:57;;;;;;;13.70;6.68;;;14.20;58.00;;;;;;5008464;28;20064;-67
2021/03/25 11:13:25;;;;;;;15.90;7.45;;;14.70;57.00;;;;;;5014736;28;20026;-66
2021/03/25 11:16:20;;;;;;;13.23;7.95;;;14.30;57.50;;;;;;5026844;28;20021;-66
2021/03/25 11:18:56;;;;;;;13.65;7.72;;;14.20;58.80;;;;;;5004838;28;20030;-67
2021/03/25 11:21:35;;;;;;;14.20;7.70;;;14.10;57.90;;;;;;5040795;28;20691;-66
2021/03/25 11:24:23;;;;;;;14.05;8.25;;;13.60;58.30;;;;;;5026846;28;20105;-67
2021/03/25 11:27:00;;;;;;;14.90;8.25;;;13.70;59.20;;;;;;5024323;28;20040;-67
2021/03/25 11:29:38;;;;;;;13.23;7.55;;;14.30;57.50;;;;;;5003896;28;20021;-68
2021/03/25 11:32:16;;;;;;;14.43;8.57;;;14.30;57.40;;;;;;5005528;28;20115;-67
2021/03/25 11:34:43;;;;;;;14.75;7.93;;;14.10;57.00;;;;;;5014752;28;20060;-68
2021/03/25 11:37:34;;;;;;;15.82;8.95;;;14.50;58.20;;;;;;5019782;28;20612;-67
2021/03/25 11:40:21;;;;;;;14.27;8.60;;;14.90;57.20;;;;;;5026626;28;20025;-67
2021/03/25 11:43:03;;;;;;;13.93;8.02;;;15.00;55.20;;;;;;5023258;28;20486;-68
2021/03/25 11:45:38;;;;;;;14.77;7.85;;;15.60;55.50;;;;;;5006881;28;20083;-67
2021/03/25 11:48:26;;;;;;;12.05;6.97;;;15.20;54.80;;;;;;5035606;28;20033;-68
2021/03/25 11:50:55;;;;;;;13.45;6.65;;;15.60;53.10;;;;;;5007477;28;20398;-66
2021/03/25 11:53:41;;;;;;;12.35;7.22;;;15.80;54.00;;;;;;5024679;28;20065;-69
2021/03/25 11:56:31;;;;;;;10.80;6.65;;;15.40;52.90;;;;;;5019384;28;20386;-68
2021/03/25 11:59:02;;;;;;;11.25;6.07;;;15.10;53.80;;;;;;5040124;28;20032;-67
2021/03/25 12:01:31;;;;;;;13.10;7.72;;;15.10;54.10;;;;;;5026127;28;20037;-68
2021/03/25 12:04:13;;;;;;;13.23;6.90;;;15.40;54.20;;;;;;5018741;28;20108;-68
2021/03/25 12:06:57;;;;;;;13.93;7.43;;;15.40;53.60;;;;;;5026516;28;20386;-67
2021/03/25 12:09:22;;;;;;;11.23;6.40;;;15.00;54.30;;;;;;5021040;28;20037;-67
2021/03/25 12:11:50;;;;;;;13.32;6.60;;;14.80;53.40;;;;;;5006458;28;20029;-66
2021/03/25 12:14:18;;;;;;;10.73;5.80;;;15.30;55.10;;;;;;5000803;28;20035;-69
2021/03/25 12:16:45;;;;;;;10.23;5.38;;;15.70;52.10;;;;;;5041187;28;20025;-67
2021/03/25 12:19:11;;;;;;;11.13;5.53;;;15.50;50.90;;;;;;5023770;28;20122;-67
2021/03/25 12:21:41;;;;;;;8.88;5.30;;;15.40;51.20;;;;;;5001744;28;20113;-66
2021/03/25 12:24:09;;;;;;;9.30;4.97;;;15.70;50.80;;;;;;5016856;28;20021;-67
2021/03/25 12:26:35;;;;;;;9.90;4.57;;;15.70;49.40;;;;;;5039560;28;20037;-67
2021/03/25 12:29:03;;;;;;;8.93;4.88;;;16.10;49.10;;;;;;5015211;28;20048;-67
2021/03/25 12:31:32;;;;;;;8.98;4.45;;;16.20;48.70;;;;;;5034644;28;20038;-66
2021/03/25 12:33:58;;;;;;;8.13;4.90;;;16.30;50.20;;;;;;5013405;28;20087;-66
2021/03/25 12:36:24;;;;;;;8.95;4.90;;;16.50;47.60;;;;;;5026532;28;20075;-67
2021/03/25 12:38:50;;;;;;;8.98;4.50;;;16.60;45.50;;;;;;5011387;28;20041;-66
2021/03/25 12:41:34;;;;;;;9.57;4.72;;;17.10;46.40;;;;;;5026717;28;20017;-67
2021/03/25 12:44:00;;;;;;;10.07;4.22;;;16.70;47.00;;;;;;5031490;28;20025;-68
2021/03/25 12:46:26;;;;;;;9.70;4.82;;;16.30;46.20;;;;;;5026276;28;20029;-67
2021/03/25 12:48:52;;;;;;;8.38;5.00;;;17.00;46.40;;;;;;5025429;28;20037;-67
2021/03/25 12:51:18;;;;;;;6.97;4.18;;;16.80;46.20;;;;;;5025969;28;20505;-66
2021/03/25 12:53:45;;;;;;;8.65;4.43;;;16.90;45.00;;;;;;5010913;28;20021;-68
2021/03/25 12:56:19;;;;;;;9.45;4.57;;;17.50;45.00;;;;;;5019280;28;20030;-67
2021/03/25 12:58:44;;;;;;;7.50;4.18;;;17.90;44.40;;;;;;5005118;28;20616;-67
2021/03/25 13:01:14;;;;;;;8.38;4.63;;;18.50;43.50;;;;;;5012988;28;20037;-67
2021/03/25 13:03:41;;;;;;;6.82;4.35;;;18.20;43.10;;;;;;5004194;28;20032;-67
2021/03/25 13:06:09;;;;;;;6.45;3.72;;;18.10;42.20;;;;;;5018182;28;20025;-66
2021/03/25 13:08:35;;;;;;;7.50;3.42;;;17.60;42.80;;;;;;5023200;28;20033;-67
2021/03/25 13:11:01;;;;;;;8.02;3.47;;;18.30;42.80;;;;;;5022313;28;20041;-68
2021/03/25 13:13:28;;;;;;;7.00;3.88;;;18.80;41.00;;;;;;5024485;28;20397;-66
2021/03/25 13:15:53;;;;;;;6.50;3.67;;;17.60;42.10;;;;;;5007629;28;20109;-67